KPWA/PWA METAR and TAF weather

Enter ICAO airport designator
Station Type Date Time Source
KPWA METAR 2020/10/20 16:53 UTC NOAA

KPWA 201653Z 17005KT 8SM OVC005 13/11 A3000 RMK AO2 SLP157 T01330106


Station Type Date Time Source
KPWA Decoded METAR 2020/10/20 16:53 UTC NOAA

WILEY POST, OK, United States (KPWA) 35-32N 97-39W 397M
Oct 20, 2020 - 12:53 PM EDT / 2020.10.20 1653 UTC
Wind: from the S (170 degrees) at 6 MPH (5 KT):0
Visibility: 8 mile(s):0
Sky conditions: overcast
Temperature: 55.9 F (13.3 C)
Dew Point: 51.1 F (10.6 C)
Relative Humidity: 83%
Pressure (altimeter): 30 in. Hg (1015 hPa)
ob: KPWA 201653Z 17005KT 8SM OVC005 13/11 A3000 RMK AO2 SLP157 T01330106
cycle: 17

Station Type Date Time Source
KPWA TAF UTC NOAA

Error!

Example: see airport list